createdAt,value
2023-01-05T00:01:39.065Z,8.25
2023-01-05T00:04:07.091Z,8.28
2023-01-05T00:06:35.683Z,8.32
2023-01-05T00:09:04.363Z,8.36
2023-01-05T00:11:51.044Z,8.37
2023-01-05T00:14:41.659Z,8.36
2023-01-05T00:17:31.041Z,8.35
2023-01-05T00:20:17.608Z,8.36
2023-01-05T00:22:52.672Z,8.37
2023-01-05T00:25:26.261Z,8.41
2023-01-05T00:27:54.708Z,8.45
2023-01-05T00:30:30.651Z,8.47
2023-01-05T00:32:58.319Z,8.51
2023-01-05T00:35:26.734Z,8.55
2023-01-05T00:37:54.826Z,8.58
2023-01-05T00:40:23.057Z,8.60
2023-01-05T00:42:51.021Z,8.64
2023-01-05T00:45:19.641Z,8.69
2023-01-05T00:47:51.685Z,8.74
2023-01-05T00:50:20.293Z,8.77
2023-01-05T00:52:48.690Z,8.80
2023-01-05T00:55:16.948Z,8.83
2023-01-05T00:57:46.382Z,8.83
2023-01-05T01:00:17.246Z,8.84
2023-01-05T01:02:45.744Z,8.84
2023-01-05T01:05:14.375Z,8.84
2023-01-05T01:07:42.274Z,8.85
2023-01-05T01:10:11.214Z,8.85
2023-01-05T01:12:38.890Z,8.84
2023-01-05T01:15:08.086Z,8.84
2023-01-05T01:17:36.454Z,8.83
2023-01-05T01:20:04.755Z,8.82
2023-01-05T01:22:32.498Z,8.83
2023-01-05T01:25:01.228Z,8.82
2023-01-05T01:27:30.998Z,8.80
2023-01-05T01:29:58.811Z,8.77
2023-01-05T01:32:26.584Z,8.76
2023-01-05T01:34:55.234Z,8.73
2023-01-05T01:37:23.271Z,8.71
2023-01-05T01:39:53.459Z,8.69
2023-01-05T01:42:21.580Z,8.65
2023-01-05T01:44:53.627Z,8.64
2023-01-05T08:17:20.439Z,8.63
2023-01-05T08:19:48.282Z,8.77
2023-01-05T08:22:15.990Z,8.93
2023-01-05T08:24:43.641Z,9.19
2023-01-05T08:27:11.363Z,9.41
2023-01-05T08:29:39.038Z,9.49
2023-01-05T08:32:06.702Z,9.48
2023-01-05T08:34:35.021Z,9.48
2023-01-05T08:37:02.829Z,9.48
2023-01-05T08:39:30.928Z,9.47
2023-01-05T08:42:02.585Z,9.44
2023-01-05T08:44:31.245Z,9.40
2023-01-05T08:46:58.934Z,9.36
2023-01-05T08:49:26.597Z,9.32
2023-01-05T08:51:54.306Z,9.29
2023-01-05T08:54:21.958Z,9.29
2023-01-05T08:56:50.829Z,9.31
2023-01-05T08:59:18.975Z,9.37
2023-01-05T09:01:46.741Z,9.44
2023-01-05T09:04:14.509Z,9.54
2023-01-05T09:06:42.353Z,9.61
2023-01-05T09:09:11.339Z,9.68
2023-01-05T09:11:40.031Z,9.68
2023-01-05T09:14:07.960Z,9.67
2023-01-05T09:17:05.177Z,9.63
2023-01-05T09:19:25.020Z,9.62
2023-01-05T09:21:54.155Z,9.63
2023-01-05T09:24:22.277Z,9.65
2023-01-05T09:26:50.497Z,9.65
2023-01-05T09:29:18.181Z,9.67
2023-01-05T09:31:45.942Z,9.68
2023-01-05T09:34:13.924Z,9.68
2023-01-05T09:36:41.596Z,9.68
2023-01-05T09:39:09.693Z,9.68
2023-01-05T09:41:47.349Z,9.70
2023-01-05T09:44:41.475Z,9.71
2023-01-05T09:47:36.667Z,9.71
2023-01-05T09:50:12.454Z,9.71
2023-01-05T09:52:40.112Z,9.70
2023-01-05T09:55:18.166Z,9.71
2023-01-05T09:57:54.209Z,9.73
2023-01-05T10:00:24.067Z,9.73
2023-01-05T10:02:58.175Z,9.73
2023-01-05T10:05:28.158Z,9.76
2023-01-05T10:08:03.471Z,9.81
2023-01-05T10:11:08.077Z,9.84
2023-01-05T10:13:39.486Z,9.83
2023-01-05T10:16:14.772Z,9.80
2023-01-05T10:18:42.781Z,9.77
2023-01-05T10:21:19.373Z,9.74
2023-01-05T10:24:18.595Z,9.71
2023-01-05T10:27:26.484Z,9.68
2023-01-05T10:30:09.714Z,9.67
2023-01-05T10:32:50.229Z,9.69
2023-01-05T10:36:00.213Z,9.70
2023-01-05T10:38:32.252Z,9.70
2023-01-05T10:41:36.133Z,9.70
2023-01-05T10:44:25.665Z,9.69
2023-01-05T10:46:53.661Z,9.70
2023-01-05T10:49:26.357Z,9.70
2023-01-05T10:51:56.958Z,9.74
2023-01-05T10:54:29.109Z,9.81
2023-01-05T10:56:56.939Z,9.89
2023-01-05T10:59:24.786Z,9.96
2023-01-05T11:01:52.630Z,9.96
2023-01-05T11:04:35.147Z,9.97
2023-01-05T11:07:04.859Z,9.93
2023-01-05T11:09:32.598Z,9.91
2023-01-05T11:12:02.901Z,9.88
2023-01-05T11:14:33.717Z,9.88
2023-01-05T11:17:07.128Z,9.88
2023-01-05T11:19:42.163Z,9.87
2023-01-05T11:22:31.730Z,9.83
2023-01-05T11:25:27.563Z,9.75
2023-01-05T11:28:16.014Z,9.68
2023-01-05T11:31:04.711Z,9.57
2023-01-05T11:33:35.133Z,9.45
2023-01-05T11:36:04.608Z,9.37
2023-01-05T11:38:32.816Z,9.30
2023-01-05T11:41:00.916Z,9.22
2023-01-05T11:43:30.588Z,9.16
2023-01-05T11:46:03.996Z,9.09
2023-01-05T11:48:34.908Z,9.05
2023-01-05T11:51:02.883Z,8.99
2023-01-05T11:53:33.658Z,8.95
2023-01-05T11:56:08.211Z,8.94
2023-01-05T11:58:44.545Z,-100.61
2023-01-05T12:01:21.811Z,-128.00
2023-01-05T12:04:22.096Z,-128.00
2023-01-05T12:07:21.019Z,-128.00
2023-01-05T12:10:09.340Z,-128.00
2023-01-05T12:13:03.844Z,-128.00
2023-01-05T12:15:39.683Z,-128.00
2023-01-05T12:18:23.764Z,-128.00
2023-01-05T12:20:56.025Z,-128.00
2023-01-05T12:23:48.653Z,-128.00
2023-01-05T12:26:29.864Z,-128.00
2023-01-05T12:35:26.175Z,-128.00
2023-01-05T12:38:03.186Z,-128.00
2023-01-05T12:40:37.151Z,-128.00
2023-01-05T12:43:09.076Z,-128.00
2023-01-05T12:45:48.957Z,-128.00
2023-01-05T12:48:21.276Z,-128.00
2023-01-05T12:51:14.033Z,-128.00
2023-01-05T12:53:53.470Z,-128.00
2023-01-05T12:56:32.692Z,-128.00
2023-01-05T12:59:14.833Z,-128.00
2023-01-05T13:01:48.775Z,-128.00
2023-01-05T13:04:54.342Z,-128.00
2023-01-05T13:07:34.453Z,-128.00
2023-01-05T13:10:06.035Z,-128.00
2023-01-05T13:12:34.519Z,-128.00
2023-01-05T13:15:14.503Z,-128.00
2023-01-05T13:17:50.533Z,-128.00
2023-01-05T13:20:26.392Z,-128.00
2023-01-05T13:23:02.762Z,-128.00
2023-01-05T13:25:46.013Z,-128.00
2023-01-05T13:28:18.803Z,-128.00
2023-01-05T13:31:07.801Z,-128.00
2023-01-05T13:33:35.797Z,-128.00
2023-01-05T13:36:39.152Z,-128.00
2023-01-05T13:39:28.174Z,-128.00
2023-01-05T13:42:08.164Z,-128.00
2023-01-05T13:44:54.979Z,-128.00
2023-01-05T13:47:46.084Z,-128.00
2023-01-05T13:50:32.800Z,-128.00
2023-01-05T13:53:05.787Z,-128.00
2023-01-05T13:55:38.047Z,-128.00
2023-01-05T13:58:06.373Z,-128.00
2023-01-05T14:00:38.193Z,-128.00
2023-01-05T14:03:17.873Z,-128.00
2023-01-05T14:05:59.672Z,-128.00
2023-01-05T14:08:33.910Z,-128.00
2023-01-05T14:11:14.386Z,-128.00
2023-01-05T14:14:04.991Z,-128.00
2023-01-05T14:16:35.976Z,-128.00
2023-01-05T14:19:11.588Z,-128.00
2023-01-05T14:21:51.411Z,-128.00
2023-01-05T14:27:16.331Z,-128.00
2023-01-05T14:29:44.004Z,-128.00
2023-01-05T14:32:41.460Z,-128.00
2023-01-05T14:35:12.227Z,-128.00
2023-01-05T14:37:56.796Z,-128.00
2023-01-05T14:40:38.004Z,-128.00
2023-01-05T14:43:20.635Z,-128.00
2023-01-05T14:46:09.717Z,-128.00
2023-01-05T14:49:00.591Z,-128.00
2023-01-05T14:51:30.168Z,-128.00
2023-01-05T14:54:03.567Z,-128.00
2023-01-05T14:56:36.878Z,-128.00
2023-01-05T14:59:29.724Z,-128.00
2023-01-05T15:02:02.533Z,-128.00
2023-01-05T15:04:33.623Z,-128.00
2023-01-05T15:07:16.884Z,-128.00
2023-01-05T15:10:16.803Z,-128.00
2023-01-05T15:13:03.139Z,-128.00
2023-01-05T15:15:33.467Z,-128.00
2023-01-05T15:18:33.016Z,-128.00
2023-01-05T15:21:38.483Z,-128.00
2023-01-05T15:24:30.825Z,-128.00
2023-01-05T15:27:11.168Z,-128.00
2023-01-05T15:30:09.234Z,-128.00
2023-01-05T15:32:44.028Z,-128.00
2023-01-05T15:35:21.090Z,-128.00
2023-01-05T15:37:52.126Z,-128.00
2023-01-05T15:40:23.108Z,-128.00
2023-01-05T15:42:54.571Z,-128.00
2023-01-05T15:45:50.232Z,-128.00
2023-01-05T15:48:38.428Z,-128.00
2023-01-05T15:51:06.444Z,-128.00
2023-01-05T15:53:41.255Z,-128.00
2023-01-05T15:56:26.137Z,-128.00
2023-01-05T15:58:54.334Z,-128.00
2023-01-05T16:01:22.021Z,-128.00
2023-01-05T16:03:50.403Z,-128.00
2023-01-05T16:06:24.698Z,-128.00
2023-01-05T16:08:54.316Z,-128.00
2023-01-05T16:11:40.877Z,-128.00
2023-01-05T16:14:28.856Z,-128.00
2023-01-05T16:17:17.745Z,-128.00
2023-01-05T16:20:09.754Z,-128.00
2023-01-05T16:22:42.406Z,-128.00
2023-01-05T16:25:39.611Z,-128.00
2023-01-05T16:28:15.197Z,-128.00
2023-01-05T16:30:43.731Z,-128.00
2023-01-05T16:33:15.137Z,-128.00
2023-01-05T16:35:47.710Z,-128.00
2023-01-05T16:38:17.258Z,-128.00
2023-01-05T16:40:50.481Z,-128.00
2023-01-05T16:43:22.412Z,-128.00
2023-01-05T16:45:51.615Z,-128.00
2023-01-05T16:48:40.557Z,-128.00
2023-01-05T16:51:14.082Z,-128.00
2023-01-05T16:53:43.997Z,-128.00
2023-01-05T16:56:22.643Z,-128.00
2023-01-05T16:58:50.281Z,-128.00
2023-01-05T17:01:24.338Z,-128.00
2023-01-05T17:03:52.721Z,-128.00
2023-01-05T17:06:27.165Z,-128.00
2023-01-05T17:08:57.423Z,-128.00
2023-01-05T17:11:27.649Z,-128.00
2023-01-05T17:13:55.566Z,-128.00
2023-01-05T17:16:23.433Z,-128.00
2023-01-05T17:18:51.426Z,-128.00
2023-01-05T17:21:22.242Z,-128.00
2023-01-05T17:23:51.828Z,-128.00
2023-01-05T17:26:36.014Z,-128.00
2023-01-05T17:29:04.967Z,-128.00
2023-01-05T17:31:34.299Z,-128.00
2023-01-05T17:34:02.163Z,-128.00
2023-01-05T17:36:34.184Z,-128.00
2023-01-05T17:39:02.182Z,-128.00
2023-01-05T17:41:29.922Z,-128.00
2023-01-05T17:43:57.658Z,-128.00
2023-01-05T17:46:32.272Z,-128.00
2023-01-05T17:49:00.664Z,-128.00
2023-01-05T17:51:29.649Z,-128.00
2023-01-05T17:53:58.543Z,-128.00
2023-01-05T17:56:26.328Z,-128.00
2023-01-05T17:58:53.997Z,-128.00
2023-01-05T18:01:21.695Z,-128.00
2023-01-05T18:03:49.365Z,-128.00
2023-01-05T18:06:17.038Z,-128.00
2023-01-05T18:08:44.746Z,-128.00
2023-01-05T18:11:12.921Z,-128.00
2023-01-05T18:13:40.828Z,-128.00
2023-01-05T18:16:10.586Z,-128.00
2023-01-05T18:18:38.536Z,-128.00
2023-01-05T18:21:06.972Z,-128.00
2023-01-05T18:23:34.788Z,-128.00
2023-01-05T18:26:08.105Z,-128.00
2023-01-05T18:28:37.118Z,-128.00
2023-01-05T18:31:12.502Z,-128.00
2023-01-05T18:33:41.205Z,-128.00
2023-01-05T18:36:13.337Z,-128.00
2023-01-05T18:38:41.559Z,-128.00
2023-01-05T18:41:09.970Z,-128.00
2023-01-05T18:43:37.735Z,-128.00
2023-01-05T18:46:05.727Z,-128.00
2023-01-05T18:48:33.456Z,-128.00
2023-01-05T18:51:05.311Z,-128.00
2023-01-05T18:53:33.012Z,-128.00
2023-01-05T18:56:05.588Z,-128.00
2023-01-05T18:58:33.339Z,-128.00
2023-01-05T19:01:06.278Z,-128.00
2023-01-05T19:03:34.378Z,-128.00
2023-01-05T19:06:09.322Z,-128.00
2023-01-05T19:08:37.613Z,-128.00
2023-01-05T19:11:18.704Z,-128.00
2023-01-05T19:13:49.063Z,-128.00
2023-01-05T19:16:19.381Z,-128.00
2023-01-05T19:18:54.798Z,-128.00
2023-01-05T19:21:24.013Z,-128.00
2023-01-05T19:23:56.473Z,-128.00
2023-01-05T19:26:25.023Z,-128.00
2023-01-05T19:28:52.796Z,-128.00
2023-01-05T19:31:23.224Z,-128.00
2023-01-05T19:33:52.362Z,-128.00
2023-01-05T19:36:23.478Z,-128.00
2023-01-05T19:38:51.255Z,-128.00
2023-01-05T19:41:21.329Z,-128.00
2023-01-05T19:43:51.000Z,-128.00
2023-01-05T19:46:20.635Z,-128.00
2023-01-05T19:48:48.672Z,-128.00
2023-01-05T19:51:23.257Z,-128.00
2023-01-05T19:53:56.792Z,-128.00
2023-01-05T19:56:27.163Z,-128.00
2023-01-05T19:59:02.221Z,-128.00
2023-01-05T20:01:32.163Z,-128.00
2023-01-05T20:04:00.301Z,-128.00
2023-01-05T20:06:30.055Z,-128.00
2023-01-05T20:08:59.711Z,-128.00
2023-01-05T20:11:45.090Z,-128.00
2023-01-05T20:14:30.783Z,-128.00
2023-01-05T20:17:01.407Z,-128.00
2023-01-05T20:19:30.842Z,-128.00
2023-01-05T20:22:00.521Z,-128.00
2023-01-05T20:24:30.568Z,-128.00
2023-01-05T20:27:01.228Z,-128.00
2023-01-05T20:29:29.692Z,-128.00
2023-01-05T20:32:03.358Z,-128.00
2023-01-05T20:34:34.921Z,-128.00
2023-01-05T20:37:04.485Z,-128.00
2023-01-05T20:39:32.570Z,-128.00
2023-01-05T20:42:04.745Z,-128.00
2023-01-05T20:44:35.480Z,-128.00
2023-01-05T20:47:04.177Z,-128.00
2023-01-05T20:49:32.634Z,-128.00
2023-01-05T20:52:00.586Z,-128.00
2023-01-05T20:54:28.206Z,-128.00
2023-01-05T20:56:55.868Z,-128.00
2023-01-05T20:59:33.009Z,-128.00
2023-01-05T21:02:01.750Z,-128.00
2023-01-05T21:04:30.629Z,-128.00
2023-01-05T21:07:01.054Z,-128.00
2023-01-05T21:09:29.677Z,-128.00
2023-01-05T21:11:58.734Z,-128.00
2023-01-05T21:14:26.543Z,-128.00
2023-01-05T21:16:55.239Z,-128.00
2023-01-05T21:19:23.881Z,-128.00
2023-01-05T21:21:55.285Z,-128.00
2023-01-05T21:24:24.047Z,-128.00
2023-01-05T21:26:52.065Z,-128.00
2023-01-05T21:29:22.566Z,-128.00
2023-01-05T21:31:51.357Z,-128.00
2023-01-05T21:34:19.579Z,-128.00
2023-01-05T21:36:48.881Z,-128.00
2023-01-05T21:39:22.544Z,-128.00
2023-01-05T21:42:09.753Z,-128.00
2023-01-05T21:44:37.827Z,-128.00
2023-01-05T21:47:06.848Z,-128.00
2023-01-05T21:49:35.966Z,-128.00
2023-01-05T21:52:23.287Z,-128.00
2023-01-05T21:55:09.808Z,-128.00
2023-01-05T21:57:37.821Z,-128.00
2023-01-05T22:00:06.310Z,-128.00
2023-01-05T22:02:34.212Z,-128.00
2023-01-05T22:05:02.563Z,-128.00
2023-01-05T22:07:30.360Z,-128.00
2023-01-05T22:09:58.106Z,-128.00
2023-01-05T22:12:26.222Z,-128.00
2023-01-05T22:14:53.900Z,-128.00
2023-01-05T22:17:21.520Z,-128.00
2023-01-05T22:19:49.228Z,-128.00
2023-01-05T22:22:16.911Z,-128.00
2023-01-05T22:24:44.536Z,-128.00
2023-01-05T22:27:12.840Z,-128.00
2023-01-05T22:29:40.633Z,-128.00
2023-01-05T22:32:08.495Z,-128.00
2023-01-05T22:34:37.897Z,-128.00
2023-01-05T22:37:05.497Z,-128.00
2023-01-05T22:39:33.130Z,-128.00
2023-01-05T22:42:00.773Z,-128.00
2023-01-05T22:44:28.353Z,-128.00
2023-01-05T22:46:56.994Z,-128.00
2023-01-05T22:49:24.959Z,-128.00
2023-01-05T22:51:52.587Z,-128.00
2023-01-05T22:54:20.439Z,-128.00
2023-01-05T22:56:48.129Z,-128.00
2023-01-05T22:59:15.929Z,-128.00
2023-01-05T23:01:45.258Z,-128.00
2023-01-05T23:04:13.996Z,-128.00
2023-01-05T23:06:41.916Z,-128.00
2023-01-05T23:09:13.300Z,-128.00
2023-01-05T23:11:41.801Z,-128.00
2023-01-05T23:14:11.372Z,-128.00
2023-01-05T23:16:39.407Z,-128.00
2023-01-05T23:19:08.250Z,-128.00
2023-01-05T23:21:36.571Z,-128.00
2023-01-05T23:24:05.003Z,-128.00
2023-01-05T23:26:32.867Z,-128.00
2023-01-05T23:29:00.602Z,-128.00
2023-01-05T23:31:28.406Z,-128.00
2023-01-05T23:33:56.996Z,-128.00
2023-01-05T23:36:25.143Z,-128.00
2023-01-05T23:38:52.880Z,-128.00
2023-01-05T23:41:20.921Z,-128.00
2023-01-05T23:43:48.630Z,-128.00
2023-01-05T23:46:21.028Z,-128.00
2023-01-05T23:48:51.182Z,-128.00
2023-01-05T23:51:18.962Z,-128.00
2023-01-05T23:53:49.401Z,-128.00
2023-01-05T23:56:23.148Z,-128.00
2023-01-05T23:58:58.477Z,-128.00
